Time;durP1;ratioP1;P1;durP2;ratioP2;P2;SDS_P1;SDS_P2;PMS_P1;PMS_P2;Temp;Humidity;BMP_temperature;BMP_pressure;BME280_temperature;BME280_humidity;BME280_pressure;Samples;Min_cycle;Max_cycle;Signal;HPM_P1;HPM_P2
2022/04/04 00:02:20;;;;;;;17.83;4.32;;;31.40;35.90;;;;;;5050655;28;20478;-65
2022/04/04 00:04:46;;;;;;;16.13;3.67;;;31.40;36.70;;;;;;5047406;28;20080;-63
2022/04/04 00:07:13;;;;;;;11.60;3.42;;;31.50;35.50;;;;;;5047313;28;20080;-64
2022/04/04 00:09:39;;;;;;;9.95;3.58;;;31.50;35.30;;;;;;5047691;28;20079;-63
2022/04/04 00:12:06;;;;;;;10.43;3.60;;;31.20;35.60;;;;;;5048682;28;20072;-65
2022/04/04 00:14:33;;;;;;;11.32;3.47;;;31.20;35.20;;;;;;5031006;28;20080;-63
2022/04/04 00:17:02;;;;;;;14.68;3.65;;;31.10;35.50;;;;;;5030013;28;20104;-65
2022/04/04 00:19:29;;;;;;;11.23;3.50;;;31.10;36.00;;;;;;5049301;28;20082;-63
2022/04/04 00:21:56;;;;;;;22.20;3.83;;;31.00;36.30;;;;;;5054185;28;20135;-61
2022/04/04 00:24:24;;;;;;;10.35;3.17;;;30.70;36.70;;;;;;5048409;28;20072;-61
2022/04/04 00:26:50;;;;;;;19.05;3.88;;;30.80;36.60;;;;;;5047334;28;20092;-64
2022/04/04 00:29:18;;;;;;;17.20;3.63;;;30.90;36.60;;;;;;5047907;28;20072;-63
2022/04/04 00:31:45;;;;;;;14.43;3.58;;;30.90;36.40;;;;;;5047406;28;20083;-61
2022/04/04 00:34:12;;;;;;;11.95;3.67;;;30.80;36.70;;;;;;5030536;28;20073;-63
2022/04/04 00:36:39;;;;;;;14.60;3.38;;;30.80;36.50;;;;;;5053676;28;20183;-63
2022/04/04 00:39:06;;;;;;;11.00;3.58;;;30.90;36.70;;;;;;5051514;28;20072;-66
2022/04/04 00:41:32;;;;;;;12.25;3.20;;;30.70;36.30;;;;;;5055169;28;20156;-64
2022/04/04 00:43:58;;;;;;;9.77;3.47;;;30.60;36.50;;;;;;5051360;28;20068;-62
2022/04/04 00:46:25;;;;;;;13.95;3.38;;;30.50;36.80;;;;;;5051916;28;20171;-64
2022/04/04 00:48:51;;;;;;;19.00;3.65;;;30.60;36.90;;;;;;5053171;28;20076;-65
2022/04/04 00:51:18;;;;;;;13.85;3.80;;;30.50;36.90;;;;;;5052154;28;20080;-63
2022/04/04 00:53:44;;;;;;;10.15;3.47;;;30.40;37.20;;;;;;5051152;28;20107;-63
2022/04/04 00:56:12;;;;;;;12.93;3.55;;;30.30;37.40;;;;;;5034258;28;20088;-63
2022/04/04 00:58:38;;;;;;;11.50;3.42;;;30.20;37.70;;;;;;5036024;28;20068;-65
2022/04/04 01:01:06;;;;;;;8.88;3.25;;;30.10;37.60;;;;;;5049710;28;20662;-62
2022/04/04 01:03:32;;;;;;;15.90;3.70;;;30.00;37.90;;;;;;5051510;28;20103;-62
2022/04/04 01:05:59;;;;;;;11.65;3.60;;;29.90;38.00;;;;;;5051580;28;20064;-63
2022/04/04 01:08:26;;;;;;;10.38;3.22;;;29.90;38.10;;;;;;5049211;28;20076;-63
2022/04/04 01:10:52;;;;;;;21.05;3.58;;;29.90;38.20;;;;;;5049794;28;20121;-61
2022/04/04 01:13:19;;;;;;;19.75;4.03;;;29.90;38.30;;;;;;5050013;28;20095;-61
2022/04/04 01:15:45;;;;;;;23.77;3.90;;;29.90;38.10;;;;;;5050741;28;20191;-62
2022/04/04 01:18:12;;;;;;;14.98;3.72;;;29.90;38.60;;;;;;5048290;28;20064;-60
2022/04/04 01:20:39;;;;;;;13.55;4.03;;;29.90;38.40;;;;;;5050508;28;20134;-60
2022/04/04 01:23:06;;;;;;;22.95;5.43;;;29.50;39.80;;;;;;5056061;28;20076;-61
2022/04/04 01:25:37;;;;;;;25.63;5.60;;;29.40;41.20;;;;;;5034744;28;20647;-61
2022/04/04 01:28:04;;;;;;;31.65;5.60;;;29.30;41.70;;;;;;5050542;28;20092;-61
2022/04/04 01:30:32;;;;;;;25.15;5.47;;;29.10;42.00;;;;;;5051266;28;20075;-64
2022/04/04 01:32:59;;;;;;;25.95;5.53;;;28.80;42.40;;;;;;5033747;28;20091;-63
2022/04/04 01:35:26;;;;;;;21.10;5.93;;;28.80;42.70;;;;;;5033700;28;20544;-62
2022/04/04 01:37:52;;;;;;;23.60;4.82;;;28.70;42.70;;;;;;5033427;28;20536;-61
2022/04/04 01:40:19;;;;;;;19.80;5.10;;;28.50;42.80;;;;;;5034642;28;20086;-61
2022/04/04 01:42:54;;;;;;;22.23;4.60;;;28.50;42.70;;;;;;5036490;28;20081;-61
2022/04/04 01:46:23;;;;;;;17.77;5.35;;;28.30;42.90;;;;;;5050760;28;20068;-64
2022/04/04 01:48:10;;;;;;;;;;;28.10;42.90;;;;;;5053082;28;20182;-60
2022/04/04 01:50:38;;;;;;;20.30;5.28;;;28.10;43.00;;;;;;5049282;28;19968;-61
2022/04/04 01:55:50;;;;;;;22.35;5.20;;;27.90;43.40;;;;;;5050741;28;20106;-64
2022/04/04 01:58:16;;;;;;;34.05;5.65;;;27.80;43.70;;;;;;5050090;28;20513;-60
2022/04/04 02:00:42;;;;;;;20.52;5.07;;;27.70;44.00;;;;;;5049358;28;20119;-62
2022/04/04 02:03:09;;;;;;;29.33;5.18;;;27.70;44.30;;;;;;5047563;28;20084;-63
2022/04/04 02:05:35;;;;;;;16.70;5.68;;;27.50;44.50;;;;;;5033578;28;20072;-61
2022/04/04 02:08:03;;;;;;;19.05;4.68;;;27.40;44.70;;;;;;5048906;28;20126;-63
2022/04/04 02:10:29;;;;;;;28.13;4.80;;;27.30;44.70;;;;;;5048199;28;20490;-62
2022/04/04 02:12:56;;;;;;;28.33;4.65;;;27.20;44.80;;;;;;5048219;28;20077;-63
2022/04/04 02:15:22;;;;;;;26.85;4.65;;;27.10;44.50;;;;;;5049386;28;20108;-63
2022/04/04 02:17:50;;;;;;;35.13;7.10;;;27.10;44.40;;;;;;5050094;28;20087;-60
2022/04/04 02:20:17;;;;;;;34.88;5.78;;;26.90;44.50;;;;;;5048917;28;20072;-61
2022/04/04 02:22:43;;;;;;;25.73;5.25;;;26.90;44.60;;;;;;5059562;28;20496;-62
2022/04/04 02:25:12;;;;;;;21.45;4.18;;;26.80;44.70;;;;;;5056609;28;20113;-64
2022/04/04 02:27:38;;;;;;;26.85;4.93;;;26.70;44.50;;;;;;5048816;28;20510;-65
2022/04/04 02:30:05;;;;;;;32.55;5.50;;;26.60;44.60;;;;;;5050170;28;20103;-64
2022/04/04 02:32:31;;;;;;;27.08;5.00;;;26.50;44.70;;;;;;5049115;28;20079;-61
2022/04/04 02:34:58;;;;;;;33.80;5.68;;;26.40;44.70;;;;;;5048519;28;20076;-62
2022/04/04 02:37:24;;;;;;;43.50;7.28;;;26.30;44.70;;;;;;5049892;28;20076;-65
2022/04/04 02:39:50;;;;;;;45.47;9.77;;;26.30;44.80;;;;;;5052375;28;20080;-63
2022/04/04 02:42:17;;;;;;;46.65;10.00;;;26.20;44.90;;;;;;5049230;28;20525;-64
2022/04/04 02:44:44;;;;;;;36.45;8.85;;;26.20;45.30;;;;;;5048750;28;20171;-63
2022/04/04 02:47:10;;;;;;;44.00;9.23;;;26.10;44.90;;;;;;5052333;28;20090;-65
2022/04/04 02:49:36;;;;;;;30.73;8.23;;;26.10;45.10;;;;;;5050631;28;20082;-65
2022/04/04 02:52:03;;;;;;;48.47;9.57;;;26.00;45.00;;;;;;5032995;28;20073;-61
2022/04/04 02:54:29;;;;;;;41.58;8.88;;;26.00;45.10;;;;;;5054996;28;20081;-61
2022/04/04 02:56:56;;;;;;;41.05;7.25;;;26.00;45.20;;;;;;5046748;28;20084;-61
2022/04/04 02:59:22;;;;;;;37.35;7.97;;;25.90;45.10;;;;;;5048451;28;20139;-63
2022/04/04 03:01:48;;;;;;;43.42;7.45;;;25.90;45.80;;;;;;5049326;28;20433;-62
2022/04/04 03:04:16;;;;;;;22.08;6.13;;;25.90;45.20;;;;;;5049489;28;20072;-62
2022/04/04 03:06:43;;;;;;;45.92;8.32;;;25.80;45.30;;;;;;5049721;28;20126;-63
2022/04/04 03:09:10;;;;;;;35.20;7.18;;;25.80;45.30;;;;;;5033267;28;20504;-65
2022/04/04 03:11:36;;;;;;;54.67;6.70;;;25.80;45.10;;;;;;5048809;28;20082;-62
2022/04/04 03:14:04;;;;;;;39.63;5.78;;;25.70;45.50;;;;;;5052499;28;20075;-63
2022/04/04 03:16:30;;;;;;;36.22;5.85;;;25.60;44.70;;;;;;5049332;28;20124;-66
2022/04/04 03:18:59;;;;;;;31.58;5.40;;;25.50;44.80;;;;;;5049559;28;20096;-66
2022/04/04 03:21:30;;;;;;;30.73;4.35;;;25.50;44.80;;;;;;5053890;28;20065;-64
2022/04/04 03:23:56;;;;;;;32.72;5.10;;;25.50;44.40;;;;;;5048625;28;20080;-66
2022/04/04 03:26:23;;;;;;;41.70;5.30;;;25.40;44.50;;;;;;5049359;28;20089;-63
2022/04/04 03:28:50;;;;;;;34.35;4.78;;;25.40;44.30;;;;;;5049800;28;20156;-64
2022/04/04 03:31:16;;;;;;;27.42;4.55;;;25.30;44.20;;;;;;5048394;28;20555;-62
2022/04/04 03:33:44;;;;;;;27.63;4.68;;;25.30;44.50;;;;;;5050816;28;20105;-62
2022/04/04 03:36:10;;;;;;;25.48;5.68;;;25.20;44.30;;;;;;5048817;28;20072;-63
2022/04/04 03:38:36;;;;;;;35.42;11.98;;;25.10;44.70;;;;;;5048711;28;20077;-63
2022/04/04 03:41:03;;;;;;;34.90;12.75;;;25.10;44.60;;;;;;5045905;28;20159;-65
2022/04/04 03:43:30;;;;;;;42.85;14.77;;;25.00;44.80;;;;;;5047669;28;20076;-61
2022/04/04 03:45:56;;;;;;;26.48;6.10;;;25.00;45.00;;;;;;5047525;28;20080;-59
2022/04/04 03:48:23;;;;;;;24.02;4.28;;;24.90;45.20;;;;;;5044655;28;20451;-63
2022/04/04 03:50:54;;;;;;;32.00;4.88;;;24.90;45.40;;;;;;5046284;28;20069;-62
2022/04/04 03:53:21;;;;;;;19.67;3.70;;;24.80;45.30;;;;;;5046545;28;20526;-64
2022/04/04 03:55:50;;;;;;;19.20;4.50;;;24.80;45.60;;;;;;5053275;28;20096;-62
2022/04/04 03:58:17;;;;;;;21.83;4.10;;;24.80;45.70;;;;;;5046760;28;20097;-61
2022/04/04 04:00:43;;;;;;;14.90;4.13;;;24.70;46.00;;;;;;5048726;28;20677;-64
2022/04/04 04:03:10;;;;;;;21.38;3.97;;;24.60;46.10;;;;;;5048627;28;20073;-61
2022/04/04 04:05:37;;;;;;;22.63;5.47;;;24.60;46.30;;;;;;5046736;28;20080;-61
2022/04/04 04:08:04;;;;;;;24.33;4.40;;;24.60;46.50;;;;;;5048003;28;20081;-62
2022/04/04 04:10:30;;;;;;;24.55;4.40;;;24.50;46.50;;;;;;5046772;28;20097;-63
2022/04/04 04:12:58;;;;;;;42.75;5.88;;;24.40;46.70;;;;;;5047596;28;20116;-64
2022/04/04 04:15:25;;;;;;;23.63;4.07;;;24.40;46.80;;;;;;5046954;28;20201;-64
2022/04/04 04:17:52;;;;;;;35.38;5.93;;;24.30;47.00;;;;;;5054266;28;20081;-65
2022/04/04 04:20:35;;;;;;;23.33;5.55;;;24.30;47.10;;;;;;5046448;28;20077;-64
2022/04/04 04:23:07;;;;;;;87.80;9.30;;;24.30;47.20;;;;;;5054392;28;20520;-62
2022/04/04 04:25:35;;;;;;;28.17;5.95;;;24.20;47.40;;;;;;5046646;28;20079;-64
2022/04/04 04:28:04;;;;;;;32.55;5.88;;;24.20;47.30;;;;;;5047110;28;20104;-65
2022/04/04 04:30:32;;;;;;;28.88;4.78;;;24.10;47.80;;;;;;5048167;28;20077;-62
2022/04/04 04:32:59;;;;;;;29.60;4.70;;;23.90;48.20;;;;;;5047881;28;20529;-62
2022/04/04 04:35:26;;;;;;;16.17;4.63;;;23.80;48.60;;;;;;5047906;28;20542;-63
2022/04/04 04:37:52;;;;;;;19.40;4.57;;;23.70;48.80;;;;;;5017925;28;20125;-64
2022/04/04 04:40:19;;;;;;;24.17;4.68;;;23.80;48.90;;;;;;5051773;28;20081;-58
2022/04/04 04:42:47;;;;;;;24.98;5.45;;;23.70;49.00;;;;;;5045198;28;20080;-63
2022/04/04 04:45:14;;;;;;;22.35;5.15;;;23.70;49.00;;;;;;5046711;28;20082;-65
2022/04/04 04:47:41;;;;;;;20.83;5.25;;;23.70;49.10;;;;;;5046685;28;20622;-63
2022/04/04 04:50:08;;;;;;;22.75;4.95;;;23.60;49.30;;;;;;5048444;28;20085;-62
2022/04/04 04:52:35;;;;;;;34.55;5.85;;;23.60;49.50;;;;;;5046942;28;20112;-62
2022/04/04 04:55:04;;;;;;;22.42;5.38;;;23.60;49.70;;;;;;5041812;28;20084;-65
2022/04/04 04:57:32;;;;;;;24.67;6.05;;;23.40;49.80;;;;;;5046330;28;20070;-64
2022/04/04 04:59:58;;;;;;;19.38;5.05;;;23.40;50.00;;;;;;5048029;28;20445;-62
2022/04/04 05:02:25;;;;;;;19.60;5.43;;;23.40;50.20;;;;;;5048582;28;20529;-61
2022/04/04 05:04:51;;;;;;;33.08;5.88;;;23.30;50.40;;;;;;5046533;28;20081;-62
2022/04/04 05:07:18;;;;;;;19.98;5.05;;;23.20;50.50;;;;;;5046267;28;20553;-63
2022/04/04 05:09:44;;;;;;;27.38;5.43;;;23.20;50.70;;;;;;5047218;28;20089;-61
2022/04/04 05:12:11;;;;;;;17.45;5.30;;;23.20;50.60;;;;;;5046954;28;20065;-62
2022/04/04 05:14:40;;;;;;;21.00;4.80;;;23.20;50.80;;;;;;5044478;28;20091;-61
2022/04/04 05:17:06;;;;;;;25.48;4.78;;;23.10;51.00;;;;;;4993963;28;20124;-62
2022/04/04 05:19:32;;;;;;;23.48;4.40;;;23.10;51.10;;;;;;5010228;28;20074;-64
2022/04/04 05:21:59;;;;;;;15.88;4.18;;;23.10;50.80;;;;;;5009444;28;20077;-63
2022/04/04 05:24:27;;;;;;;16.48;4.50;;;23.00;50.70;;;;;;5016491;28;20069;-62
2022/04/04 05:26:55;;;;;;;31.98;5.75;;;23.10;50.50;;;;;;5035484;28;20105;-62
2022/04/04 05:29:22;;;;;;;22.50;5.47;;;23.00;50.70;;;;;;5031618;28;20522;-61
2022/04/04 05:31:48;;;;;;;18.85;4.90;;;23.00;51.90;;;;;;5021420;28;20231;-62
2022/04/04 05:34:15;;;;;;;15.82;4.03;;;22.80;52.50;;;;;;5032358;28;20535;-60
2022/04/04 05:36:41;;;;;;;15.52;3.67;;;22.80;52.80;;;;;;5012059;28;20097;-62
2022/04/04 05:39:08;;;;;;;16.77;3.80;;;22.70;53.00;;;;;;5018986;28;20078;-61
2022/04/04 05:41:36;;;;;;;18.02;3.78;;;22.60;53.00;;;;;;5016847;28;20530;-62
2022/04/04 05:44:04;;;;;;;19.95;3.75;;;22.60;53.10;;;;;;5012950;28;20081;-61
2022/04/04 05:46:31;;;;;;;17.70;3.55;;;22.60;53.10;;;;;;5030988;28;20094;-62
2022/04/04 05:48:57;;;;;;;15.38;4.00;;;22.50;53.20;;;;;;5015343;28;20175;-60
2022/04/04 05:51:23;;;;;;;19.73;10.82;;;22.40;53.30;;;;;;4996536;28;20537;-62
2022/04/04 05:53:50;;;;;;;16.75;8.23;;;22.40;53.50;;;;;;5003268;28;20465;-61
2022/04/04 05:56:16;;;;;;;15.43;6.35;;;22.30;53.40;;;;;;5027329;28;20172;-61
2022/04/04 05:58:43;;;;;;;15.07;5.53;;;22.30;53.50;;;;;;5038857;28;20159;-62
2022/04/04 06:01:09;;;;;;;6.63;2.92;;;22.20;53.70;;;;;;5016754;28;20078;-63
2022/04/04 06:03:36;;;;;;;10.55;2.58;;;22.20;53.70;;;;;;5012766;28;20082;-62
2022/04/04 06:06:03;;;;;;;9.45;2.80;;;22.20;53.60;;;;;;5015138;28;20081;-64
2022/04/04 06:08:30;;;;;;;11.88;3.15;;;22.10;53.50;;;;;;5009889;28;20121;-62
2022/04/04 06:10:57;;;;;;;9.43;3.22;;;22.10;53.80;;;;;;5012697;28;20074;-64
2022/04/04 06:13:23;;;;;;;9.40;3.08;;;22.10;54.20;;;;;;5016742;28;20120;-61
2022/04/04 06:15:50;;;;;;;8.18;2.95;;;22.10;54.50;;;;;;5041091;28;20122;-60
2022/04/04 06:18:16;;;;;;;11.82;2.90;;;22.00;54.30;;;;;;5032576;28;20090;-62
2022/04/04 06:20:43;;;;;;;8.57;2.58;;;22.00;54.40;;;;;;5035514;28;20521;-60
2022/04/04 06:23:11;;;;;;;7.85;2.42;;;22.00;55.00;;;;;;5031738;28;20069;-62
2022/04/04 06:25:38;;;;;;;9.82;2.60;;;22.00;55.50;;;;;;5035142;28;20492;-62
2022/04/04 06:28:05;;;;;;;11.15;2.78;;;22.00;54.60;;;;;;5018682;28;20082;-61
2022/04/04 06:30:32;;;;;;;10.70;2.72;;;21.90;54.70;;;;;;5018261;28;20113;-61
2022/04/04 06:32:58;;;;;;;7.20;2.92;;;21.90;54.80;;;;;;5049730;28;20097;-60
2022/04/04 06:35:26;;;;;;;10.10;2.97;;;21.80;54.80;;;;;;5016587;28;20082;-63
2022/04/04 06:37:53;;;;;;;8.52;3.17;;;21.80;55.20;;;;;;5003123;28;20085;-61
2022/04/04 06:40:19;;;;;;;10.25;2.03;;;21.80;54.90;;;;;;5054114;28;20093;-61
2022/04/04 06:42:46;;;;;;;5.35;2.20;;;21.80;54.70;;;;;;5052746;28;20164;-61
2022/04/04 06:45:13;;;;;;;6.63;2.50;;;21.70;54.60;;;;;;5034594;28;20078;-58
2022/04/04 06:47:40;;;;;;;5.82;3.00;;;21.70;54.80;;;;;;5033302;28;20414;-64
2022/04/04 06:50:07;;;;;;;5.95;2.53;;;21.70;54.90;;;;;;5051163;28;20069;-63
2022/04/04 06:52:33;;;;;;;10.27;2.58;;;21.70;54.90;;;;;;5038537;28;21495;-60
2022/04/04 06:55:01;;;;;;;10.35;2.55;;;21.60;55.10;;;;;;5032590;28;20189;-62
2022/04/04 06:57:28;;;;;;;6.72;2.17;;;21.60;55.60;;;;;;5038197;28;20074;-62
2022/04/04 06:59:54;;;;;;;6.35;1.90;;;21.60;55.60;;;;;;5034781;28;20167;-63
2022/04/04 07:02:21;;;;;;;5.75;1.70;;;21.50;55.60;;;;;;5034526;28;20505;-61
2022/04/04 07:04:49;;;;;;;9.65;2.45;;;21.50;55.80;;;;;;5032761;28;20175;-61
2022/04/04 07:07:17;;;;;;;6.07;2.00;;;21.40;55.90;;;;;;5037203;28;20082;-62
2022/04/04 07:09:45;;;;;;;5.82;1.95;;;21.40;56.30;;;;;;5033363;28;20529;-61
2022/04/04 07:12:11;;;;;;;10.00;2.85;;;21.30;56.50;;;;;;5050285;28;20674;-61
2022/04/04 07:14:38;;;;;;;9.07;2.88;;;21.30;56.80;;;;;;5035569;28;20070;-61
2022/04/04 07:17:05;;;;;;;8.52;2.83;;;21.30;57.00;;;;;;5036757;28;20128;-60
2022/04/04 07:19:34;;;;;;;6.07;2.50;;;21.20;57.30;;;;;;5052598;28;20080;-61
2022/04/04 07:22:01;;;;;;;14.35;3.00;;;21.10;57.60;;;;;;5024165;28;20168;-61
2022/04/04 07:24:28;;;;;;;10.73;2.58;;;21.00;57.70;;;;;;5030096;28;20077;-60
2022/04/04 07:26:56;;;;;;;5.03;2.65;;;21.00;57.80;;;;;;5048481;28;20179;-59
2022/04/04 07:29:23;;;;;;;7.45;2.10;;;21.00;57.90;;;;;;5034571;28;20073;-62
2022/04/04 07:31:49;;;;;;;9.20;2.85;;;21.00;57.90;;;;;;5048368;28;20513;-59
2022/04/04 07:34:16;;;;;;;9.00;2.47;;;21.00;58.00;;;;;;5031146;28;20176;-59
2022/04/04 07:36:42;;;;;;;11.68;2.75;;;20.90;58.20;;;;;;5033870;28;20095;-60
2022/04/04 07:39:09;;;;;;;5.50;2.35;;;21.00;58.20;;;;;;5025609;28;20073;-61
2022/04/04 07:41:35;;;;;;;7.80;2.22;;;20.90;58.30;;;;;;5032208;28;20082;-63
2022/04/04 07:44:02;;;;;;;8.27;2.70;;;20.90;58.10;;;;;;5046584;28;20061;-61
2022/04/04 07:46:28;;;;;;;6.53;2.40;;;20.90;58.50;;;;;;5034205;28;20120;-58
2022/04/04 07:48:55;;;;;;;5.40;2.20;;;20.90;58.50;;;;;;5029090;28;20094;-60
2022/04/04 07:51:22;;;;;;;7.32;2.42;;;20.90;58.30;;;;;;5033915;28;20079;-60
2022/04/04 07:53:49;;;;;;;3.95;1.98;;;20.90;58.90;;;;;;5032635;28;20073;-61
2022/04/04 07:56:15;;;;;;;7.45;2.25;;;20.80;58.70;;;;;;5031881;28;20085;-59
2022/04/04 07:58:42;;;;;;;6.63;2.50;;;20.80;58.70;;;;;;5033007;28;20126;-64
2022/04/04 08:01:09;;;;;;;9.15;2.30;;;20.70;58.60;;;;;;5035691;28;20282;-61
2022/04/04 08:03:35;;;;;;;13.23;2.38;;;20.70;59.10;;;;;;5046574;28;20074;-66
2022/04/04 08:06:02;;;;;;;8.95;2.90;;;20.70;58.90;;;;;;5029540;28;20085;-61
2022/04/04 08:08:29;;;;;;;8.63;2.95;;;20.70;59.10;;;;;;5046500;28;20157;-60
2022/04/04 08:10:57;;;;;;;10.32;2.63;;;20.70;59.00;;;;;;5030771;28;20461;-61
2022/04/04 08:13:24;;;;;;;8.40;2.35;;;20.70;59.10;;;;;;5030081;28;20505;-61
2022/04/04 08:15:52;;;;;;;7.47;2.60;;;20.60;59.40;;;;;;5029455;28;20106;-61
2022/04/04 08:18:19;;;;;;;6.40;2.58;;;20.60;59.70;;;;;;5030853;28;20084;-62
2022/04/04 08:20:45;;;;;;;8.85;3.05;;;20.60;59.60;;;;;;4999488;28;20101;-64
2022/04/04 08:23:11;;;;;;;10.43;3.50;;;20.60;59.80;;;;;;5017304;28;20065;-64
2022/04/04 08:25:38;;;;;;;;;;;20.60;60.00;;;;;;5012931;28;20089;-60
2022/04/04 08:28:05;;;;;;;6.78;3.10;;;20.50;60.20;;;;;;5046661;28;20063;-60
2022/04/04 08:30:31;;;;;;;5.80;3.28;;;20.50;60.20;;;;;;5048431;28;20073;-61
2022/04/04 08:32:58;;;;;;;17.70;3.83;;;20.40;60.50;;;;;;5033332;28;20112;-60
2022/04/04 08:35:24;;;;;;;14.55;3.45;;;20.40;60.70;;;;;;5030963;28;20082;-60
2022/04/04 08:37:51;;;;;;;10.35;4.22;;;20.30;61.00;;;;;;5037459;28;20089;-60
2022/04/04 08:40:18;;;;;;;11.65;4.30;;;20.30;61.40;;;;;;5049307;28;20765;-63
2022/04/04 08:42:46;;;;;;;12.40;4.13;;;20.30;61.50;;;;;;5033498;28;20631;-63
2022/04/04 08:45:12;;;;;;;14.32;4.32;;;20.30;61.90;;;;;;5047430;28;20156;-63
2022/04/04 08:47:41;;;;;;;15.88;4.43;;;20.20;62.00;;;;;;5045328;28;20085;-61
2022/04/04 08:50:10;;;;;;;12.65;4.25;;;20.30;61.90;;;;;;5031193;28;20164;-60
2022/04/04 08:52:37;;;;;;;10.75;4.25;;;20.30;62.30;;;;;;5047480;28;20097;-61
2022/04/04 08:55:04;;;;;;;8.80;3.70;;;20.20;62.00;;;;;;5032845;28;20093;-60
2022/04/04 08:57:30;;;;;;;9.90;3.92;;;20.20;62.00;;;;;;5035079;28;20425;-60
2022/04/04 08:59:56;;;;;;;10.55;3.25;;;20.20;62.20;;;;;;5036722;28;20511;-61
2022/04/04 09:02:23;;;;;;;16.67;3.63;;;20.20;62.30;;;;;;5041538;28;20081;-64
2022/04/04 09:04:52;;;;;;;10.00;3.58;;;20.20;62.40;;;;;;5054550;28;20163;-60
2022/04/04 09:07:21;;;;;;;5.90;2.67;;;20.20;62.80;;;;;;5038410;28;20097;-61
2022/04/04 09:09:52;;;;;;;11.18;3.60;;;20.20;62.70;;;;;;5037290;28;20521;-63
2022/04/04 09:12:26;;;;;;;9.98;3.10;;;20.20;62.80;;;;;;5014432;28;20160;-60
2022/04/04 09:14:58;;;;;;;7.82;3.30;;;20.10;63.10;;;;;;5030213;28;20476;-63
2022/04/04 09:17:30;;;;;;;13.65;3.58;;;20.10;63.30;;;;;;5032920;28;20069;-61
2022/04/04 09:20:03;;;;;;;14.60;3.45;;;20.10;63.30;;;;;;5036901;28;20084;-60
2022/04/04 09:22:30;;;;;;;11.05;3.00;;;20.00;63.20;;;;;;5035733;28;20171;-60
2022/04/04 09:24:59;;;;;;;16.40;3.53;;;20.00;63.30;;;;;;5035697;28;20168;-60
2022/04/04 09:27:32;;;;;;;17.73;4.90;;;19.90;63.30;;;;;;5020610;28;20123;-61
2022/04/04 09:30:01;;;;;;;21.90;5.68;;;19.90;63.50;;;;;;5017101;28;20073;-63
2022/04/04 09:32:37;;;;;;;35.45;8.63;;;19.80;63.40;;;;;;5010851;28;20672;-61
2022/04/04 09:35:14;;;;;;;38.20;7.85;;;19.80;63.30;;;;;;5043152;28;20071;-63
2022/04/04 09:37:44;;;;;;;42.00;8.90;;;19.80;63.30;;;;;;5049315;28;20164;-62
2022/04/04 09:40:23;;;;;;;28.63;7.68;;;19.80;63.60;;;;;;5049786;28;20156;-59
2022/04/04 09:42:53;;;;;;;22.30;6.78;;;19.80;64.40;;;;;;5035596;28;20437;-60
2022/04/04 09:45:30;;;;;;;28.20;6.30;;;19.60;65.20;;;;;;5036003;28;20073;-61
2022/04/04 09:48:04;;;;;;;34.63;6.75;;;19.60;65.90;;;;;;5035097;28;20195;-59
2022/04/04 09:50:35;;;;;;;28.42;6.55;;;19.60;66.00;;;;;;5048439;28;20544;-61
2022/04/04 09:53:03;;;;;;;33.72;6.05;;;19.50;66.20;;;;;;5048959;28;20081;-59
2022/04/04 09:55:37;;;;;;;26.17;7.20;;;19.60;66.30;;;;;;5033003;28;20503;-61
2022/04/04 09:58:07;;;;;;;29.73;7.60;;;19.60;66.60;;;;;;5015623;28;20131;-61
2022/04/04 10:00:38;;;;;;;35.20;8.18;;;19.50;67.20;;;;;;5049764;28;20097;-60
2022/04/04 10:03:08;;;;;;;25.63;7.82;;;19.50;68.10;;;;;;5037394;28;20097;-63
2022/04/04 10:05:37;;;;;;;33.17;8.90;;;19.40;68.80;;;;;;5037683;28;20527;-62
2022/04/04 10:08:05;;;;;;;29.05;9.77;;;19.20;70.10;;;;;;5035039;28;20089;-61
2022/04/04 10:10:32;;;;;;;38.45;12.10;;;19.30;70.70;;;;;;5033843;28;20096;-62
2022/04/04 10:12:59;;;;;;;44.17;12.75;;;19.30;71.20;;;;;;5031914;28;20097;-61
2022/04/04 10:15:27;;;;;;;37.20;12.98;;;19.30;71.40;;;;;;5039876;28;20624;-61
2022/04/04 10:17:55;;;;;;;53.70;17.23;;;19.20;71.90;;;;;;5015630;28;20138;-60
2022/04/04 10:20:22;;;;;;;56.58;17.98;;;19.20;73.30;;;;;;5014571;28;20553;-61
2022/04/04 10:22:52;;;;;;;45.00;15.52;;;19.10;73.80;;;;;;5015006;28;20073;-61
2022/04/04 10:25:23;;;;;;;42.28;13.95;;;19.00;74.70;;;;;;4996798;28;20090;-63
2022/04/04 10:27:49;;;;;;;43.65;12.82;;;19.00;75.60;;;;;;5015416;28;20085;-62
2022/04/04 10:30:16;;;;;;;46.10;14.45;;;19.00;76.20;;;;;;5010380;28;20152;-63
2022/04/04 10:32:54;;;;;;;42.88;14.00;;;19.10;76.50;;;;;;5036495;28;20136;-60
2022/04/04 10:35:25;;;;;;;42.85;13.38;;;19.00;77.20;;;;;;5018113;28;20131;-64
2022/04/04 10:37:52;;;;;;;53.25;13.15;;;19.00;77.70;;;;;;5012860;28;20128;-61
2022/04/04 10:40:20;;;;;;;36.13;12.68;;;19.10;78.30;;;;;;5014890;28;20078;-59
2022/04/04 10:42:59;;;;;;;34.58;11.75;;;19.00;78.60;;;;;;5006248;28;20185;-60
2022/04/04 10:45:30;;;;;;;41.95;12.25;;;19.10;79.10;;;;;;5015743;28;20100;-63
2022/04/04 10:48:09;;;;;;;29.55;8.15;;;19.00;79.40;;;;;;5016515;28;20097;-59
2022/04/04 10:50:42;;;;;;;27.40;7.55;;;18.90;80.70;;;;;;5017957;28;20096;-62
2022/04/04 10:53:10;;;;;;;21.23;7.47;;;18.80;82.10;;;;;;5016669;28;20531;-60
2022/04/04 10:55:36;;;;;;;27.05;7.45;;;18.80;82.80;;;;;;5001013;28;20548;-61
2022/04/04 10:58:23;;;;;;;34.35;7.53;;;18.80;83.70;;;;;;5030404;28;20085;-62
2022/04/04 11:00:54;;;;;;;26.30;6.82;;;18.80;84.30;;;;;;5015586;28;20179;-61
2022/04/04 11:03:52;;;;;;;26.80;7.80;;;18.90;84.50;;;;;;5016205;28;20125;-62
2022/04/04 11:09:26;;;;;;;29.17;6.88;;;18.70;85.80;;;;;;5012140;28;20084;-61
2022/04/04 11:12:09;;;;;;;36.22;7.68;;;18.70;87.30;;;;;;4993305;28;20082;-63
2022/04/04 11:14:39;;;;;;;21.38;6.57;;;18.70;88.10;;;;;;5008055;28;20607;-62
2022/04/04 11:17:08;;;;;;;26.88;6.68;;;18.70;88.50;;;;;;4994254;28;20129;-62
2022/04/04 11:19:48;;;;;;;25.55;6.15;;;18.80;89.00;;;;;;5008817;28;20090;-61
2022/04/04 11:22:26;;;;;;;26.70;5.97;;;18.80;89.00;;;;;;5010631;28;20074;-57
2022/04/04 11:24:53;;;;;;;34.88;6.63;;;18.80;89.40;;;;;;5009200;28;20132;-62
2022/04/04 11:27:24;;;;;;;29.52;7.40;;;18.80;89.50;;;;;;5011295;28;20108;-61
2022/04/04 11:29:50;;;;;;;32.42;7.15;;;18.80;90.30;;;;;;4978764;28;20626;-61
2022/04/04 11:32:28;;;;;;;28.70;6.90;;;18.80;90.80;;;;;;5013007;28;20105;-62
2022/04/04 11:34:58;;;;;;;23.70;6.72;;;18.80;91.30;;;;;;5007567;28;20106;-58
2022/04/04 11:37:27;;;;;;;23.25;5.95;;;18.80;91.80;;;;;;4993155;28;20109;-61
2022/04/04 11:40:03;;;;;;;25.35;5.95;;;18.80;92.10;;;;;;4999149;28;20593;-61
2022/04/04 11:42:30;;;;;;;19.55;5.50;;;18.70;92.30;;;;;;5020417;28;20081;-61
2022/04/04 11:44:59;;;;;;;18.90;5.80;;;18.60;92.70;;;;;;5042400;28;20088;-60
2022/04/04 11:47:26;;;;;;;18.33;4.80;;;18.70;92.90;;;;;;5035573;28;20668;-61
2022/04/04 11:49:55;;;;;;;24.30;6.00;;;18.60;92.80;;;;;;5034129;28;20124;-61
2022/04/04 11:52:24;;;;;;;27.85;6.93;;;18.50;93.20;;;;;;5048603;28;20069;-61
2022/04/04 11:54:51;;;;;;;25.27;5.88;;;18.50;93.60;;;;;;5034101;28;20082;-58
2022/04/04 11:57:21;;;;;;;25.20;5.90;;;18.50;93.80;;;;;;5036245;28;20172;-65
2022/04/04 11:59:51;;;;;;;24.45;6.25;;;18.40;94.20;;;;;;5048941;28;20552;-62
2022/04/04 12:02:23;;;;;;;25.13;6.97;;;18.50;94.60;;;;;;5037984;28;20168;-60
2022/04/04 12:04:50;;;;;;;28.73;7.47;;;18.50;94.90;;;;;;5052048;28;20066;-63
2022/04/04 12:07:17;;;;;;;23.90;6.90;;;18.50;95.20;;;;;;5036815;28;20668;-61
2022/04/04 12:09:46;;;;;;;26.70;6.60;;;18.50;95.90;;;;;;5037106;28;20077;-61
2022/04/04 12:12:13;;;;;;;27.50;7.20;;;18.50;96.40;;;;;;5036563;28;20084;-64
2022/04/04 12:14:42;;;;;;;24.33;6.75;;;18.50;96.80;;;;;;5038749;28;20065;-61
2022/04/04 12:17:16;;;;;;;25.23;6.70;;;18.50;97.10;;;;;;5012602;28;20116;-60
2022/04/04 12:19:47;;;;;;;29.75;7.75;;;18.50;97.30;;;;;;4982690;28;20113;-59
2022/04/04 12:25:10;;;;;;;26.02;8.07;;;18.40;98.10;;;;;;5035647;28;20555;-64
2022/04/04 12:27:55;;;;;;;32.28;7.88;;;18.30;98.70;;;;;;5029423;28;20599;-61
2022/04/04 12:30:30;;;;;;;30.75;7.05;;;18.30;99.50;;;;;;5033703;28;20080;-64
2022/04/04 12:33:09;;;;;;;22.05;6.20;;;18.30;99.90;;;;;;5036682;28;20088;-61
2022/04/04 12:35:47;;;;;;;28.75;6.90;;;18.20;99.90;;;;;;5034375;28;20099;-61
2022/04/04 12:38:37;;;;;;;30.08;7.70;;;18.10;99.90;;;;;;5051503;28;20089;-60
2022/04/04 12:41:13;;;;;;;35.13;7.43;;;18.20;99.90;;;;;;5029191;28;21480;-61
2022/04/04 12:43:58;;;;;;;25.40;7.18;;;18.10;99.90;;;;;;5012684;28;20521;-61
2022/04/04 12:46:27;;;;;;;35.60;7.38;;;18.10;99.90;;;;;;5030027;28;20556;-61
2022/04/04 12:49:07;;;;;;;30.77;7.57;;;18.00;99.90;;;;;;5047961;28;20096;-64
2022/04/04 12:51:34;;;;;;;35.17;8.18;;;18.00;99.90;;;;;;5047840;28;20541;-61
2022/04/04 12:54:01;;;;;;;31.35;6.85;;;18.00;99.90;;;;;;5031033;28;20079;-62